createdAt,value
2022-11-01T00:02:18.283Z,14.21
2022-11-01T00:04:47.992Z,14.06
2022-11-01T00:07:15.236Z,13.92
2022-11-01T00:09:42.410Z,14.07
2022-11-01T00:12:09.703Z,14.05
2022-11-01T00:14:36.881Z,13.91
2022-11-01T00:17:04.119Z,13.81
2022-11-01T00:19:31.414Z,13.83
2022-11-01T00:21:58.818Z,13.91
2022-11-01T00:24:25.990Z,13.98
2022-11-01T00:26:53.163Z,14.01
2022-11-01T00:29:20.400Z,14.05
2022-11-01T00:31:47.652Z,14.08
2022-11-01T00:34:18.328Z,14.00
2022-11-01T00:36:45.534Z,14.26
2022-11-01T00:39:16.599Z,14.25
2022-11-01T00:41:43.877Z,14.32
2022-11-01T00:44:11.072Z,13.86
2022-11-01T00:46:38.363Z,14.42
2022-11-01T00:49:05.519Z,14.32
2022-11-01T00:51:32.657Z,13.99
2022-11-01T00:54:00.110Z,14.05
2022-11-01T00:56:27.588Z,14.09
2022-11-01T00:58:54.789Z,14.10
2022-11-01T01:01:24.556Z,14.09
2022-11-01T01:03:51.870Z,13.88
2022-11-01T01:06:21.550Z,13.99
2022-11-01T01:08:48.805Z,13.93
2022-11-01T01:11:16.741Z,13.86
2022-11-01T01:13:43.926Z,13.96
2022-11-01T01:16:12.957Z,14.11
2022-11-01T01:18:40.341Z,13.79
2022-11-01T01:21:07.601Z,13.57
2022-11-01T01:23:36.711Z,13.89
2022-11-01T01:26:10.391Z,13.84
2022-11-01T01:28:41.899Z,14.22
2022-11-01T01:31:13.989Z,14.09
2022-11-01T01:33:41.795Z,14.21
2022-11-01T01:36:11.450Z,13.84
2022-11-01T01:38:38.661Z,13.96
2022-11-01T01:41:25.153Z,13.94
2022-11-01T01:43:52.507Z,13.92
2022-11-01T01:46:19.670Z,13.86
2022-11-01T01:48:55.102Z,13.88
2022-11-01T01:51:27.320Z,14.24
2022-11-01T01:53:59.874Z,13.99
2022-11-01T01:56:36.950Z,14.01
2022-11-01T01:59:09.540Z,13.86
2022-11-01T02:01:40.876Z,13.98
2022-11-01T02:04:36.034Z,14.01
2022-11-01T02:07:03.781Z,13.80
2022-11-01T02:09:32.718Z,13.85
2022-11-01T02:12:00.042Z,13.97
2022-11-01T02:14:27.647Z,13.98
2022-11-01T02:17:31.863Z,13.99
2022-11-01T02:20:44.063Z,14.03
2022-11-01T02:24:15.853Z,14.05
2022-11-01T02:27:28.498Z,14.30
2022-11-01T02:30:14.172Z,14.45
2022-11-01T02:33:20.835Z,13.98
2022-11-01T02:35:55.678Z,14.18
2022-11-01T02:38:39.702Z,14.29
2022-11-01T02:41:25.640Z,14.45
2022-11-01T02:44:04.109Z,14.80
2022-11-01T02:46:58.563Z,14.64
2022-11-01T02:49:34.962Z,14.66
2022-11-01T02:52:05.302Z,14.78
2022-11-01T02:54:40.701Z,14.76
2022-11-01T02:57:37.316Z,14.72
2022-11-01T03:00:29.648Z,14.53
2022-11-01T03:03:17.014Z,14.51
2022-11-01T03:06:16.409Z,14.65
2022-11-01T03:09:00.686Z,15.05
2022-11-01T03:12:04.668Z,14.62
2022-11-01T03:14:56.987Z,14.39
2022-11-01T03:17:45.704Z,15.11
2022-11-01T03:20:49.351Z,14.47
2022-11-01T03:23:28.968Z,14.50
2022-11-01T03:26:00.856Z,14.62
2022-11-01T03:28:42.180Z,14.71
2022-11-01T03:31:22.399Z,14.69
2022-11-01T03:33:57.499Z,14.62
2022-11-01T03:36:33.302Z,14.62
2022-11-01T03:39:21.980Z,14.88
2022-11-01T03:41:59.174Z,14.77
2022-11-01T03:44:34.168Z,14.70
2022-11-01T03:47:02.606Z,14.88
2022-11-01T03:49:29.897Z,14.83
2022-11-01T03:51:57.155Z,14.69
2022-11-01T03:54:24.876Z,14.62
2022-11-01T03:56:52.374Z,14.49
2022-11-01T03:59:19.480Z,15.07
2022-11-01T04:01:46.974Z,15.09
2022-11-01T04:04:16.691Z,14.67
2022-11-01T04:06:43.942Z,14.60
2022-11-01T04:09:11.166Z,14.65
2022-11-01T04:11:38.334Z,14.60
2022-11-01T04:14:24.407Z,14.72
2022-11-01T04:17:10.607Z,14.74
2022-11-01T04:19:56.508Z,14.88
2022-11-01T04:22:24.735Z,15.10
2022-11-01T04:24:52.030Z,15.29
2022-11-01T04:27:19.235Z,15.29
2022-11-01T04:29:46.462Z,15.11
2022-11-01T04:32:13.645Z,15.22
2022-11-01T04:34:43.650Z,14.93
2022-11-01T04:37:12.552Z,15.06
2022-11-01T04:39:40.352Z,15.26
2022-11-01T04:42:07.576Z,15.04
2022-11-01T04:44:34.682Z,14.77
2022-11-01T04:47:02.668Z,14.89
2022-11-01T04:49:29.821Z,14.82
2022-11-01T04:51:56.926Z,14.76
2022-11-01T04:54:24.114Z,14.82
2022-11-01T04:56:51.244Z,15.00
2022-11-01T04:59:18.378Z,15.04
2022-11-01T05:01:45.599Z,15.11
2022-11-01T05:04:12.839Z,14.90
2022-11-01T05:06:39.963Z,14.88
2022-11-01T05:09:07.282Z,15.14
2022-11-01T05:11:34.449Z,15.18
2022-11-01T05:14:01.627Z,15.47
2022-11-01T05:16:28.836Z,15.35
2022-11-01T05:18:56.163Z,15.33
2022-11-01T05:21:23.339Z,15.21
2022-11-01T05:23:50.554Z,15.65
2022-11-01T05:26:17.772Z,15.83
2022-11-01T05:28:44.942Z,15.51
2022-11-01T05:31:12.306Z,15.49
2022-11-01T05:33:39.462Z,15.55
2022-11-01T05:36:07.489Z,15.45
2022-11-01T05:38:34.750Z,15.42
2022-11-01T05:41:03.879Z,15.44
2022-11-01T05:43:31.107Z,15.33
2022-11-01T05:45:58.257Z,15.17
2022-11-01T05:48:25.624Z,15.39
2022-11-01T05:50:52.748Z,15.41
2022-11-01T05:53:19.889Z,15.46
2022-11-01T05:55:47.069Z,15.54
2022-11-01T05:58:14.650Z,15.66
2022-11-01T06:00:42.093Z,15.50
2022-11-01T06:03:09.481Z,15.49
2022-11-01T06:05:39.398Z,15.13
2022-11-01T06:08:07.332Z,15.18
2022-11-01T06:10:34.957Z,15.33
2022-11-01T06:13:02.618Z,15.38
2022-11-01T06:15:33.071Z,15.49
2022-11-01T06:18:04.581Z,15.50
2022-11-01T06:20:39.259Z,15.22
2022-11-01T06:23:11.683Z,15.24
2022-11-01T06:25:39.099Z,15.41
2022-11-01T06:31:02.410Z,15.64
2022-11-01T06:33:31.712Z,15.76
2022-11-01T06:36:04.756Z,15.75
2022-11-01T06:38:32.135Z,16.02
2022-11-01T06:40:59.326Z,15.73
2022-11-01T06:43:26.611Z,15.54
2022-11-01T06:45:53.896Z,15.85
2022-11-01T06:48:21.180Z,15.75
2022-11-01T06:50:48.620Z,15.81
2022-11-01T06:53:16.017Z,15.81
2022-11-01T06:55:43.210Z,15.88
2022-11-01T06:58:10.442Z,16.03
2022-11-01T07:00:37.654Z,16.15
2022-11-01T07:03:09.814Z,16.16
2022-11-01T07:05:39.017Z,16.43
2022-11-01T07:08:10.582Z,16.54
2022-11-01T07:10:43.053Z,16.34
2022-11-01T07:13:13.961Z,16.21
2022-11-01T07:15:41.509Z,16.27
2022-11-01T07:18:09.855Z,16.30
2022-11-01T07:20:43.180Z,16.21
2022-11-01T07:23:16.323Z,16.77
2022-11-01T07:25:45.297Z,16.16
2022-11-01T07:28:14.352Z,16.45
2022-11-01T07:30:42.136Z,16.63
2022-11-01T07:33:35.180Z,16.80
2022-11-01T07:36:04.775Z,16.63
2022-11-01T07:38:32.470Z,16.62
2022-11-01T07:40:59.967Z,16.84
2022-11-01T07:43:27.504Z,17.08
2022-11-01T07:49:00.373Z,16.78
2022-11-01T07:51:28.166Z,17.37
2022-11-01T07:56:28.069Z,17.38
2022-11-01T07:58:55.309Z,17.45
2022-11-01T08:01:22.727Z,17.52
2022-11-01T08:03:50.027Z,17.76
2022-11-01T08:06:18.164Z,18.03
2022-11-01T08:08:46.352Z,18.37
2022-11-01T08:11:13.633Z,18.86
2022-11-01T08:13:40.804Z,18.70
2022-11-01T08:16:08.654Z,19.46
2022-11-01T08:18:35.810Z,19.87
2022-11-01T08:21:03.028Z,19.51
2022-11-01T08:23:30.165Z,19.56
2022-11-01T08:25:58.795Z,19.81
2022-11-01T08:28:28.383Z,20.14
2022-11-01T08:30:55.714Z,20.49
2022-11-01T08:33:22.927Z,20.69
2022-11-01T08:35:50.967Z,21.10
2022-11-01T08:38:24.684Z,21.50
2022-11-01T08:40:52.226Z,21.62
2022-11-01T08:43:20.595Z,21.64
2022-11-01T08:45:48.782Z,21.76
2022-11-01T08:48:18.743Z,22.12
2022-11-01T08:50:46.207Z,22.32
2022-11-01T08:53:15.626Z,22.12
2022-11-01T08:55:43.799Z,22.23
2022-11-01T08:58:12.069Z,22.31
2022-11-01T09:00:39.606Z,22.47
2022-11-01T09:03:07.793Z,22.56
2022-11-01T09:05:36.582Z,22.61
2022-11-01T09:08:07.368Z,22.49
2022-11-01T09:10:35.224Z,22.61
2022-11-01T09:13:06.076Z,22.65
2022-11-01T09:15:34.662Z,22.62
2022-11-01T09:18:07.423Z,22.66
2022-11-01T09:20:35.040Z,22.88
2022-11-01T09:23:03.065Z,22.94
2022-11-01T09:25:44.202Z,22.96
2022-11-01T09:28:27.842Z,22.87
2022-11-01T09:31:28.115Z,22.72
2022-11-01T09:34:03.742Z,22.53
2022-11-01T09:37:05.867Z,22.94
2022-11-01T09:39:42.460Z,22.36
2022-11-01T09:42:48.212Z,22.74
2022-11-01T09:45:27.152Z,22.81
2022-11-01T09:48:20.536Z,23.20
2022-11-01T09:51:35.594Z,23.66
2022-11-01T09:54:17.578Z,24.92
2022-11-01T09:57:16.368Z,27.07
2022-11-01T09:59:54.138Z,30.68
2022-11-01T10:03:01.961Z,34.29
2022-11-01T10:06:11.440Z,36.94
2022-11-01T10:08:59.608Z,37.47
2022-11-01T10:12:08.204Z,38.05
2022-11-01T10:15:10.888Z,38.59
2022-11-01T10:17:53.829Z,37.55
2022-11-01T10:20:37.141Z,38.01
2022-11-01T10:23:06.023Z,37.80
2022-11-01T10:25:39.509Z,37.39
2022-11-01T10:28:28.620Z,36.58
2022-11-01T10:31:12.880Z,36.12
2022-11-01T10:34:00.161Z,36.50
2022-11-01T10:36:40.385Z,35.44
2022-11-01T10:39:55.607Z,33.40
2022-11-01T10:42:28.832Z,32.22
2022-11-01T10:45:04.220Z,31.23
2022-11-01T10:47:32.113Z,30.28
2022-11-01T10:50:14.368Z,29.87
2022-11-01T10:53:00.818Z,29.44
2022-11-01T10:55:43.553Z,29.37
2022-11-01T10:58:43.934Z,28.35
2022-11-01T11:01:21.874Z,28.38
2022-11-01T11:03:51.396Z,28.15
2022-11-01T11:06:20.220Z,27.90
2022-11-01T11:08:55.151Z,27.10
2022-11-01T11:11:58.780Z,26.82
2022-11-01T11:14:31.792Z,26.75
2022-11-01T11:17:03.138Z,26.40
2022-11-01T11:19:30.618Z,26.23
2022-11-01T11:22:00.478Z,26.34
2022-11-01T11:24:40.777Z,26.31
2022-11-01T11:27:27.111Z,26.28
2022-11-01T11:30:01.455Z,26.32
2022-11-01T11:32:34.655Z,26.56
2022-11-01T11:35:27.617Z,26.24
2022-11-01T11:38:06.290Z,26.11
2022-11-01T11:40:43.205Z,26.14
2022-11-01T11:43:34.108Z,25.88
2022-11-01T11:49:28.075Z,26.12
2022-11-01T11:51:56.302Z,26.54
2022-11-01T11:54:33.022Z,27.67
2022-11-01T11:57:26.830Z,27.99
2022-11-01T12:00:07.455Z,27.88
2022-11-01T12:02:42.263Z,27.95
2022-11-01T12:05:26.861Z,28.41
2022-11-01T12:07:56.952Z,28.68
2022-11-01T12:10:38.783Z,28.90
2022-11-01T12:13:32.100Z,29.12
2022-11-01T12:16:49.669Z,29.11
2022-11-01T12:19:31.933Z,29.42
2022-11-01T12:22:03.770Z,29.85
2022-11-01T12:24:49.490Z,30.29
2022-11-01T12:27:25.844Z,30.90
2022-11-01T12:30:05.076Z,31.46
2022-11-01T12:32:48.695Z,31.33
2022-11-01T12:35:38.139Z,31.14
2022-11-01T12:38:38.615Z,30.82
2022-11-01T12:41:34.974Z,30.51
2022-11-01T12:44:58.549Z,30.73
2022-11-01T12:47:43.038Z,31.67
2022-11-01T12:50:28.946Z,32.86
2022-11-01T12:53:16.146Z,33.12
2022-11-01T12:55:44.254Z,33.59
2022-11-01T12:58:19.221Z,32.93
2022-11-01T13:01:39.376Z,31.40
2022-11-01T13:04:35.838Z,29.86
2022-11-01T13:07:28.783Z,28.00
2022-11-01T13:10:36.251Z,27.96
2022-11-01T13:13:45.671Z,28.10
2022-11-01T13:16:37.025Z,27.14
2022-11-01T13:19:31.078Z,26.58
2022-11-01T13:22:16.560Z,26.69
2022-11-01T13:25:12.680Z,26.92
2022-11-01T13:28:24.962Z,28.35
2022-11-01T13:31:33.735Z,28.81
2022-11-01T13:34:33.276Z,27.96
2022-11-01T13:37:24.623Z,26.72
2022-11-01T13:40:08.614Z,26.06
2022-11-01T13:43:11.405Z,25.25
2022-11-01T13:46:22.242Z,25.41
2022-11-01T13:49:10.294Z,25.49
2022-11-01T13:52:03.075Z,24.73
2022-11-01T13:54:40.699Z,24.10
2022-11-01T13:57:09.267Z,24.20
2022-11-01T13:59:41.273Z,24.24
2022-11-01T14:02:25.334Z,23.56
2022-11-01T14:05:12.685Z,23.94
2022-11-01T14:07:45.975Z,24.31
2022-11-01T14:10:28.276Z,23.78
2022-11-01T14:13:08.113Z,22.41
2022-11-01T14:15:54.512Z,22.44
2022-11-01T14:18:22.844Z,21.87
2022-11-01T14:20:55.897Z,22.09
2022-11-01T14:23:29.526Z,22.49
2022-11-01T14:26:19.002Z,22.75
2022-11-01T14:28:50.443Z,22.77
2022-11-01T14:31:24.143Z,23.02
2022-11-01T14:33:59.757Z,23.10
2022-11-01T14:36:34.455Z,23.02
2022-11-01T14:39:25.397Z,22.55
2022-11-01T14:41:56.358Z,22.56
2022-11-01T14:44:38.389Z,22.75
2022-11-01T14:47:37.347Z,22.32
2022-11-01T14:50:45.724Z,21.78
2022-11-01T14:53:37.528Z,21.82
2022-11-01T14:56:11.286Z,21.77
2022-11-01T14:58:39.826Z,21.80
2022-11-01T15:01:23.360Z,21.82
2022-11-01T15:04:00.988Z,21.87
2022-11-01T15:06:30.966Z,21.83
2022-11-01T15:09:05.139Z,21.86
2022-11-01T15:11:35.140Z,21.66
2022-11-01T15:14:07.803Z,21.73
2022-11-01T15:16:37.697Z,21.64
2022-11-01T15:19:20.800Z,21.61
2022-11-01T15:21:49.344Z,21.72
2022-11-01T15:24:25.722Z,21.66
2022-11-01T15:26:54.344Z,21.15
2022-11-01T15:29:24.953Z,21.09
2022-11-01T15:31:59.432Z,21.10
2022-11-01T15:34:34.583Z,21.38
2022-11-01T15:37:30.052Z,21.35
2022-11-01T15:42:34.740Z,21.15
2022-11-01T15:45:32.819Z,21.02
2022-11-01T15:48:13.591Z,20.84
2022-11-01T15:50:53.390Z,20.51
2022-11-01T15:53:27.397Z,20.39
2022-11-01T15:56:25.078Z,20.34
2022-11-01T16:01:35.144Z,20.05
2022-11-01T16:04:10.072Z,19.81
2022-11-01T16:06:51.016Z,19.43
2022-11-01T16:09:49.540Z,19.33
2022-11-01T16:12:32.684Z,19.26
2022-11-01T16:15:18.466Z,19.12
2022-11-01T16:17:46.914Z,19.04
2022-11-01T16:20:40.954Z,18.99
2022-11-01T16:23:12.648Z,18.91
2022-11-01T16:25:40.784Z,18.67
2022-11-01T16:28:14.969Z,18.53
2022-11-01T16:30:54.834Z,18.42
2022-11-01T16:33:45.239Z,18.26
2022-11-01T16:36:37.591Z,18.14
2022-11-01T16:39:32.367Z,18.07
2022-11-01T16:42:00.237Z,17.93
2022-11-01T16:44:27.470Z,17.76
2022-11-01T16:46:55.252Z,17.76
2022-11-01T16:49:29.434Z,17.57
2022-11-01T16:51:57.199Z,17.57
2022-11-01T16:54:26.038Z,17.41
2022-11-01T16:57:01.469Z,17.37
2022-11-01T16:59:35.631Z,17.38
2022-11-01T17:02:26.242Z,17.54
2022-11-01T17:05:15.660Z,17.90
2022-11-01T17:07:42.798Z,17.40
2022-11-01T17:10:30.955Z,17.15
2022-11-01T17:12:58.423Z,17.12
2022-11-01T17:15:29.273Z,17.40
2022-11-01T17:18:29.246Z,16.69
2022-11-01T17:20:59.711Z,16.52
2022-11-01T17:23:29.301Z,16.34
2022-11-01T17:25:56.909Z,16.50
2022-11-01T17:28:24.816Z,16.56
2022-11-01T17:30:52.875Z,16.42
2022-11-01T17:33:21.138Z,16.12
2022-11-01T17:35:49.096Z,16.28
2022-11-01T17:38:30.143Z,15.91
2022-11-01T17:40:59.763Z,15.80
2022-11-01T17:43:27.196Z,15.42
2022-11-01T17:45:55.035Z,15.26
2022-11-01T17:48:22.341Z,15.49
2022-11-01T17:50:49.924Z,15.43
2022-11-01T17:53:18.999Z,15.49
2022-11-01T17:55:46.912Z,15.04
2022-11-01T17:58:14.848Z,15.21
2022-11-01T18:00:50.725Z,15.45
2022-11-01T18:03:21.537Z,15.33
2022-11-01T18:06:06.981Z,15.19
2022-11-01T18:08:52.465Z,15.21
2022-11-01T18:11:42.621Z,15.34
2022-11-01T18:14:56.691Z,15.28
2022-11-01T18:18:13.536Z,15.09
2022-11-01T18:21:22.793Z,15.26
2022-11-01T18:23:58.669Z,15.15
2022-11-01T18:26:30.421Z,14.79
2022-11-01T18:29:40.743Z,14.56
2022-11-01T18:33:22.165Z,14.15
2022-11-01T18:36:26.561Z,14.43
2022-11-01T18:39:50.283Z,14.40
2022-11-01T18:42:28.150Z,14.59
2022-11-01T18:45:30.389Z,14.45
2022-11-01T18:48:08.325Z,14.47
2022-11-01T18:50:46.878Z,14.33
2022-11-01T18:53:26.340Z,14.65
2022-11-01T18:56:03.739Z,14.58
2022-11-01T18:58:34.923Z,14.83
2022-11-01T19:01:46.950Z,14.65
2022-11-01T19:04:32.261Z,14.36
2022-11-01T19:07:17.989Z,14.45
2022-11-01T19:10:04.385Z,14.38
2022-11-01T19:12:58.105Z,14.21
2022-11-01T19:15:36.595Z,14.60
2022-11-01T19:18:19.248Z,15.08
2022-11-01T19:21:04.437Z,15.17
2022-11-01T19:23:40.755Z,14.68
2022-11-01T19:26:41.435Z,14.26
2022-11-01T19:29:25.489Z,13.82
2022-11-01T19:32:00.760Z,13.40
2022-11-01T19:34:41.176Z,13.71
2022-11-01T19:37:34.649Z,13.91
2022-11-01T19:40:26.566Z,13.70
2022-11-01T19:43:03.034Z,13.30
2022-11-01T19:45:54.760Z,13.24
2022-11-01T19:48:44.421Z,13.13
2022-11-01T19:51:24.270Z,13.23
2022-11-01T19:53:54.045Z,13.43
2022-11-01T19:56:34.971Z,13.33
2022-11-01T19:59:21.698Z,13.00
2022-11-01T20:01:52.028Z,12.35
2022-11-01T20:04:31.522Z,12.60
2022-11-01T20:07:16.840Z,12.90
2022-11-01T20:09:44.667Z,13.06
2022-11-01T20:12:11.820Z,12.75
2022-11-01T20:14:39.812Z,12.75
2022-11-01T20:17:07.070Z,12.64
2022-11-01T20:19:34.201Z,12.62
2022-11-01T20:22:01.704Z,12.39
2022-11-01T20:24:30.690Z,12.21
2022-11-01T20:27:00.798Z,12.26
2022-11-01T20:29:28.016Z,12.50
2022-11-01T20:31:55.776Z,12.65
2022-11-01T20:34:27.220Z,12.62
2022-11-01T20:37:22.761Z,12.74
2022-11-01T20:39:42.788Z,12.63
2022-11-01T20:42:16.750Z,12.68
2022-11-01T20:44:44.470Z,12.62
2022-11-01T20:47:11.757Z,12.63
2022-11-01T20:49:39.183Z,12.54
2022-11-01T20:52:33.795Z,12.55
2022-11-01T20:54:53.901Z,12.49
2022-11-01T20:57:27.987Z,12.46
2022-11-01T20:59:56.922Z,12.29
2022-11-01T21:02:24.469Z,12.34
2022-11-01T21:05:04.817Z,12.31
2022-11-01T21:07:34.050Z,12.34
2022-11-01T21:10:18.556Z,12.27
2022-11-01T21:12:50.337Z,12.44
2022-11-01T21:15:27.394Z,12.48
2022-11-01T21:18:07.054Z,12.37
2022-11-01T21:20:45.501Z,12.26
2022-11-01T21:23:21.623Z,12.24
2022-11-01T21:25:57.883Z,12.19
2022-11-01T21:28:34.650Z,11.91
2022-11-01T21:31:14.031Z,11.52
2022-11-01T21:33:53.682Z,11.47
2022-11-01T21:36:20.906Z,11.82
2022-11-01T21:39:25.423Z,12.00
2022-11-01T21:42:34.087Z,11.89
2022-11-01T21:45:29.743Z,11.94
2022-11-01T21:48:14.594Z,11.91
2022-11-01T21:50:42.611Z,12.00
2022-11-01T21:53:10.473Z,11.48
2022-11-01T21:55:37.804Z,11.20
2022-11-01T21:58:04.969Z,11.22
2022-11-01T22:00:32.352Z,11.18
2022-11-01T22:02:59.863Z,11.32
2022-11-01T22:05:27.067Z,11.33
2022-11-01T22:07:54.301Z,11.11
2022-11-01T22:10:21.843Z,11.04
2022-11-01T22:12:49.222Z,11.06
2022-11-01T22:15:25.792Z,10.88
2022-11-01T22:17:53.124Z,10.89
2022-11-01T22:20:20.238Z,10.88
2022-11-01T22:22:47.445Z,10.86
2022-11-01T22:25:14.718Z,10.99
2022-11-01T22:27:46.563Z,10.87
2022-11-01T22:30:14.968Z,11.06
2022-11-01T22:32:42.517Z,11.29
2022-11-01T22:35:09.854Z,11.37
2022-11-01T22:37:37.088Z,10.98
2022-11-01T22:40:15.050Z,11.06
2022-11-01T22:42:44.530Z,10.81
2022-11-01T22:45:17.769Z,10.82
2022-11-01T22:47:46.768Z,11.05
2022-11-01T22:50:27.025Z,11.33
2022-11-01T22:52:54.226Z,11.22
2022-11-01T22:55:27.357Z,10.85
2022-11-01T22:58:29.569Z,10.62
2022-11-01T23:01:00.441Z,10.58
2022-11-01T23:03:38.744Z,10.71
2022-11-01T23:06:34.944Z,11.00
2022-11-01T23:09:17.240Z,10.92
2022-11-01T23:12:12.028Z,10.85
2022-11-01T23:14:45.382Z,10.54
2022-11-01T23:17:28.928Z,10.63
2022-11-01T23:20:00.335Z,10.88
2022-11-01T23:22:35.546Z,10.82
2022-11-01T23:25:04.976Z,10.72
2022-11-01T23:27:32.372Z,10.87
2022-11-01T23:30:03.037Z,10.85
2022-11-01T23:32:32.126Z,10.90
2022-11-01T23:35:18.107Z,10.84
2022-11-01T23:37:46.467Z,10.82
2022-11-01T23:40:21.416Z,10.85
2022-11-01T23:42:51.048Z,10.88
2022-11-01T23:45:36.231Z,10.93
2022-11-01T23:48:03.855Z,10.71
2022-11-01T23:50:37.044Z,10.75
2022-11-01T23:53:14.835Z,10.41
2022-11-01T23:55:48.660Z,10.47
2022-11-01T23:58:32.639Z,10.45
